createdAt,value
2018-02-04T00:02:24.568Z,88.94
2018-02-04T00:04:53.807Z,88.76
2018-02-04T00:07:23.804Z,88.69
2018-02-04T00:09:53.037Z,88.53
2018-02-04T00:12:23.006Z,88.52
2018-02-04T00:14:52.223Z,88.62
2018-02-04T00:17:22.946Z,88.40
2018-02-04T00:19:52.185Z,89.34
2018-02-04T00:22:43.217Z,88.98
2018-02-04T00:25:12.769Z,88.17
2018-02-04T00:27:41.997Z,88.06
2018-02-04T00:30:12.022Z,87.88
2018-02-04T00:32:41.974Z,87.55
2018-02-04T00:35:11.176Z,88.10
2018-02-04T00:37:40.406Z,88.36
2018-02-04T00:40:10.419Z,88.50
2018-02-04T00:42:39.632Z,88.32
2018-02-04T00:45:08.847Z,87.66
2018-02-04T00:47:38.855Z,88.31
2018-02-04T00:50:08.099Z,87.79
2018-02-04T00:52:37.468Z,88.62
2018-02-04T00:55:06.688Z,87.61
2018-02-04T00:57:35.893Z,87.89
2018-02-04T01:00:05.918Z,87.92
2018-02-04T01:02:35.152Z,87.78
2018-02-04T01:05:05.214Z,87.36
2018-02-04T01:07:34.425Z,86.76
2018-02-04T01:10:03.655Z,86.85
2018-02-04T01:12:33.630Z,86.71
2018-02-04T01:15:02.874Z,85.59
2018-02-04T01:17:32.932Z,85.22
2018-02-04T01:20:02.129Z,85.29
2018-02-04T01:22:31.355Z,85.44
2018-02-04T01:25:00.574Z,85.46
2018-02-04T01:27:29.811Z,84.56
2018-02-04T01:29:59.022Z,84.96
2018-02-04T01:32:28.251Z,84.82
2018-02-04T01:34:57.455Z,84.22
2018-02-04T01:37:28.169Z,83.73
2018-02-04T01:39:57.395Z,82.85
2018-02-04T01:42:26.669Z,82.90
2018-02-04T01:44:55.907Z,83.17
2018-02-04T01:47:25.186Z,82.30
2018-02-04T01:49:54.419Z,80.98
2018-02-04T01:52:24.389Z,81.18
2018-02-04T01:54:53.640Z,81.05
2018-02-04T01:57:22.838Z,82.55
2018-02-04T01:59:52.121Z,81.31
2018-02-04T02:02:21.335Z,80.79
2018-02-04T02:04:50.586Z,80.40
2018-02-04T02:07:19.809Z,79.50
2018-02-04T02:09:49.844Z,79.24
2018-02-04T02:12:19.055Z,78.76
2018-02-04T02:14:48.300Z,78.62
2018-02-04T02:17:17.498Z,79.10
2018-02-04T02:19:47.510Z,79.90
2018-02-04T02:22:16.717Z,79.91
2018-02-04T02:24:46.002Z,79.64
2018-02-04T02:27:15.218Z,80.14
2018-02-04T02:29:45.187Z,79.71
2018-02-04T02:32:14.462Z,80.16
2018-02-04T02:34:43.764Z,77.35
2018-02-04T02:37:13.010Z,78.05
2018-02-04T02:39:42.214Z,78.74
2018-02-04T02:42:11.731Z,77.82
2018-02-04T02:44:40.960Z,76.81
2018-02-04T02:47:10.204Z,77.37
2018-02-04T02:49:39.498Z,78.14
2018-02-04T02:52:08.783Z,79.35
2018-02-04T02:54:38.003Z,78.19
2018-02-04T02:57:07.205Z,78.13
2018-02-04T02:59:36.447Z,78.09
2018-02-04T03:02:05.645Z,78.49
2018-02-04T03:04:35.119Z,78.05
2018-02-04T03:07:04.351Z,78.56
2018-02-04T03:09:33.584Z,78.39
2018-02-04T03:12:02.819Z,79.02
2018-02-04T03:14:32.839Z,78.70
2018-02-04T03:17:02.917Z,78.24
2018-02-04T03:19:32.154Z,77.56
2018-02-04T03:22:02.130Z,77.39
2018-02-04T03:24:31.400Z,77.47
2018-02-04T03:27:00.596Z,78.30
2018-02-04T03:29:29.814Z,76.70
2018-02-04T03:31:59.012Z,76.38
2018-02-04T03:34:28.224Z,76.36
2018-02-04T03:36:57.565Z,75.55
2018-02-04T03:39:27.644Z,75.21
2018-02-04T03:41:56.842Z,75.68
2018-02-04T03:44:26.084Z,75.50
2018-02-04T03:46:55.307Z,76.20
2018-02-04T03:49:24.571Z,75.79
2018-02-04T03:51:54.537Z,74.12
2018-02-04T03:54:23.825Z,73.84
2018-02-04T03:56:53.081Z,75.24
2018-02-04T03:59:23.056Z,74.58
2018-02-04T04:01:52.361Z,75.56
2018-02-04T04:04:21.836Z,75.65
2018-02-04T04:06:51.101Z,75.63
2018-02-04T04:09:21.094Z,75.91
2018-02-04T04:11:51.105Z,76.91
2018-02-04T04:14:20.321Z,75.83
2018-02-04T04:16:50.314Z,75.81
2018-02-04T04:19:19.676Z,75.53
2018-02-04T04:21:48.906Z,75.73
2018-02-04T04:24:18.183Z,75.68
2018-02-04T04:26:47.650Z,75.53
2018-02-04T04:29:16.926Z,75.22
2018-02-04T04:31:46.239Z,74.61
2018-02-04T04:34:16.278Z,75.32
2018-02-04T04:36:45.603Z,76.53
2018-02-04T04:39:14.835Z,75.39
2018-02-04T04:41:44.068Z,75.16
2018-02-04T04:44:13.322Z,74.93
2018-02-04T04:46:42.567Z,73.97
2018-02-04T04:49:11.773Z,74.63
2018-02-04T04:51:41.130Z,74.53
2018-02-04T04:54:10.333Z,73.10
2018-02-04T04:56:41.668Z,74.16
2018-02-04T04:59:12.754Z,72.87
2018-02-04T05:01:42.007Z,73.01
2018-02-04T05:04:11.236Z,75.23
2018-02-04T05:06:41.390Z,73.63
2018-02-04T05:09:12.440Z,73.34
2018-02-04T05:11:45.367Z,72.92
2018-02-04T05:14:15.447Z,73.25
2018-02-04T05:16:44.702Z,72.11
2018-02-04T05:19:14.671Z,73.48
2018-02-04T05:21:43.907Z,72.33
2018-02-04T05:24:13.973Z,71.60
2018-02-04T05:26:43.221Z,71.48
2018-02-04T05:29:13.226Z,70.21
2018-02-04T05:31:42.445Z,70.66
2018-02-04T05:34:12.427Z,69.89
2018-02-04T05:36:41.654Z,69.51
2018-02-04T05:39:11.694Z,69.96
2018-02-04T05:41:40.916Z,70.34
2018-02-04T05:44:10.121Z,70.60
2018-02-04T05:46:39.427Z,72.11
2018-02-04T05:49:08.772Z,72.41
2018-02-04T05:51:38.804Z,72.13
2018-02-04T05:54:08.004Z,72.15
2018-02-04T05:56:37.209Z,72.01
2018-02-04T05:59:06.437Z,72.75
2018-02-04T06:01:35.761Z,71.59
2018-02-04T06:04:05.028Z,72.36
2018-02-04T06:06:34.243Z,72.26
2018-02-04T06:09:03.471Z,71.94
2018-02-04T06:11:33.458Z,70.31
2018-02-04T06:14:02.766Z,71.29
2018-02-04T06:16:31.932Z,71.36
2018-02-04T06:19:01.160Z,71.97
2018-02-04T06:21:33.043Z,72.33
2018-02-04T06:24:03.015Z,71.03
2018-02-04T06:26:32.230Z,71.33
2018-02-04T06:29:01.463Z,70.73
2018-02-04T06:31:31.452Z,71.54
2018-02-04T06:34:00.703Z,71.37
2018-02-04T06:36:29.890Z,70.83
2018-02-04T06:38:59.247Z,70.29
2018-02-04T06:41:28.454Z,71.41
2018-02-04T06:43:58.451Z,71.65
2018-02-04T06:46:29.168Z,71.49
2018-02-04T06:48:58.513Z,71.38
2018-02-04T06:51:28.702Z,70.43
2018-02-04T06:53:57.959Z,70.80
2018-02-04T06:56:27.259Z,71.12
2018-02-04T06:58:57.204Z,71.84
2018-02-04T07:01:26.432Z,71.15
2018-02-04T07:03:56.462Z,72.74
2018-02-04T07:06:25.706Z,71.14
2018-02-04T07:08:54.890Z,71.52
2018-02-04T07:11:24.939Z,72.18
2018-02-04T07:13:54.155Z,72.12
2018-02-04T07:16:24.138Z,71.31
2018-02-04T07:18:53.363Z,71.59
2018-02-04T07:21:23.375Z,70.59
2018-02-04T07:23:52.582Z,70.85
2018-02-04T07:26:22.588Z,71.60
2018-02-04T07:28:51.841Z,71.79
2018-02-04T07:31:21.074Z,71.59
2018-02-04T07:33:50.293Z,71.88
2018-02-04T07:36:20.306Z,72.55
2018-02-04T07:38:50.291Z,72.34
2018-02-04T07:41:19.591Z,73.09
2018-02-04T07:43:48.865Z,74.66
2018-02-04T07:46:18.058Z,73.25
2018-02-04T07:48:47.293Z,72.45
2018-02-04T07:51:16.497Z,72.86
2018-02-04T07:53:45.785Z,72.23
2018-02-04T07:56:15.191Z,72.37
2018-02-04T07:58:44.418Z,72.12
2018-02-04T08:01:14.423Z,72.30
2018-02-04T08:03:44.083Z,73.06
2018-02-04T08:06:13.300Z,73.20
2018-02-04T08:08:42.581Z,73.02
2018-02-04T08:11:11.780Z,72.61
2018-02-04T08:13:40.983Z,72.61
2018-02-04T08:16:10.225Z,71.87
2018-02-04T08:18:40.211Z,71.75
2018-02-04T08:21:09.459Z,71.87
2018-02-04T08:23:38.719Z,71.74
2018-02-04T08:26:08.016Z,72.98
2018-02-04T08:28:37.224Z,73.36
2018-02-04T08:31:06.446Z,72.01
2018-02-04T08:33:35.742Z,73.01
2018-02-04T08:36:05.727Z,73.60
2018-02-04T08:38:34.970Z,72.32
2018-02-04T08:41:04.175Z,72.11
2018-02-04T08:43:33.397Z,73.36
2018-02-04T08:46:02.597Z,73.07
2018-02-04T08:48:31.787Z,73.58
2018-02-04T08:51:00.993Z,74.20
2018-02-04T08:53:30.232Z,73.51
2018-02-04T08:56:00.339Z,74.07
2018-02-04T08:58:31.060Z,74.14
2018-02-04T09:01:00.256Z,74.42
2018-02-04T09:03:29.444Z,75.04
2018-02-04T09:05:58.672Z,75.33
2018-02-04T09:08:28.639Z,77.89
2018-02-04T09:10:57.837Z,78.10
2018-02-04T09:13:27.086Z,79.73
2018-02-04T09:15:57.044Z,80.08
2018-02-04T09:18:26.428Z,82.02
2018-02-04T09:20:55.616Z,82.20
2018-02-04T09:23:24.801Z,81.86
2018-02-04T09:25:54.779Z,82.98
2018-02-04T09:28:24.183Z,84.49
2018-02-04T09:30:53.424Z,85.07
2018-02-04T09:33:23.380Z,85.95
2018-02-04T09:35:52.674Z,86.75
2018-02-04T09:38:21.993Z,86.66
2018-02-04T09:40:51.202Z,86.40
2018-02-04T09:43:20.440Z,86.73
2018-02-04T09:45:49.683Z,87.51
2018-02-04T09:48:18.847Z,88.11
2018-02-04T09:50:48.029Z,87.76
2018-02-04T09:53:17.277Z,86.51
2018-02-04T09:55:46.424Z,86.77
2018-02-04T09:58:15.733Z,86.89
2018-02-04T10:00:44.947Z,87.69
2018-02-04T10:03:14.188Z,86.72
2018-02-04T10:05:43.405Z,86.24
2018-02-04T10:08:13.503Z,86.50
2018-02-04T10:10:42.838Z,87.10
2018-02-04T10:13:12.232Z,87.08
2018-02-04T10:15:41.417Z,87.33
2018-02-04T10:18:11.440Z,87.17
2018-02-04T10:20:41.432Z,87.09
2018-02-04T10:23:12.033Z,86.47
2018-02-04T10:25:41.252Z,85.36
2018-02-04T10:28:10.455Z,84.21
2018-02-04T10:30:39.814Z,84.78
2018-02-04T10:33:09.746Z,85.36
2018-02-04T10:35:39.065Z,84.87
2018-02-04T10:38:08.280Z,85.69
2018-02-04T10:40:37.580Z,84.94
2018-02-04T10:43:06.771Z,80.87
2018-02-04T10:45:35.970Z,82.26
2018-02-04T10:48:05.193Z,82.37
2018-02-04T10:50:34.398Z,81.62
2018-02-04T10:53:03.676Z,82.72
2018-02-04T10:55:33.720Z,81.87
2018-02-04T10:58:02.945Z,82.07
2018-02-04T11:00:32.944Z,81.55
2018-02-04T11:03:02.221Z,81.89
2018-02-04T11:05:31.444Z,81.53
2018-02-04T11:08:00.797Z,80.80
2018-02-04T11:10:30.742Z,81.12
2018-02-04T11:13:00.110Z,79.34
2018-02-04T11:15:29.326Z,78.27
2018-02-04T11:17:59.288Z,79.90
2018-02-04T11:20:28.737Z,76.90
2018-02-04T11:22:58.821Z,77.47
2018-02-04T11:25:28.194Z,77.33
2018-02-04T11:27:58.159Z,75.19
2018-02-04T11:30:27.339Z,74.88
2018-02-04T11:32:56.530Z,74.27
2018-02-04T11:35:25.722Z,74.91
2018-02-04T11:37:56.655Z,76.22
2018-02-04T11:40:25.854Z,73.33
2018-02-04T11:42:55.053Z,72.39
2018-02-04T11:45:24.233Z,73.58
2018-02-04T11:47:53.443Z,73.29
2018-02-04T11:50:22.664Z,71.40
2018-02-04T11:52:51.913Z,71.07
2018-02-04T11:55:21.080Z,73.09
2018-02-04T11:57:51.016Z,71.91
2018-02-04T12:00:20.345Z,71.53
2018-02-04T12:02:49.531Z,72.20
2018-02-04T12:05:18.745Z,72.04
2018-02-04T12:07:48.055Z,73.05
2018-02-04T12:10:17.253Z,73.71
2018-02-04T12:12:46.437Z,72.99
2018-02-04T12:15:15.737Z,72.61
2018-02-04T12:17:44.959Z,72.73
2018-02-04T12:20:14.151Z,72.85
2018-02-04T12:22:43.413Z,71.43
2018-02-04T12:25:12.599Z,72.72
2018-02-04T12:27:41.786Z,70.36
2018-02-04T12:30:10.955Z,69.60
2018-02-04T12:32:40.998Z,68.71
2018-02-04T12:35:10.239Z,69.31
2018-02-04T12:37:40.415Z,70.32
2018-02-04T12:40:09.619Z,71.44
2018-02-04T12:42:38.828Z,69.73
2018-02-04T12:45:08.058Z,70.62
2018-02-04T12:47:37.311Z,69.89
2018-02-04T12:50:06.461Z,70.47
2018-02-04T12:52:36.680Z,69.89
2018-02-04T12:55:05.890Z,70.83
2018-02-04T12:57:35.091Z,71.46
2018-02-04T13:00:04.346Z,72.18
2018-02-04T13:02:33.596Z,73.10
2018-02-04T13:05:02.744Z,72.24
2018-02-04T13:07:31.950Z,73.59
2018-02-04T13:10:01.184Z,72.72
2018-02-04T13:12:31.242Z,72.12
2018-02-04T13:15:00.580Z,72.27
2018-02-04T13:17:29.787Z,71.97
2018-02-04T13:19:58.969Z,71.46
2018-02-04T13:22:28.382Z,70.60
2018-02-04T13:24:57.692Z,71.80
2018-02-04T13:27:26.892Z,71.28
2018-02-04T13:29:56.872Z,71.68
2018-02-04T13:32:26.108Z,72.06
2018-02-04T13:34:55.313Z,72.54
2018-02-04T13:37:24.548Z,73.47
2018-02-04T13:39:53.743Z,74.23
2018-02-04T13:42:23.052Z,72.76
2018-02-04T13:44:52.394Z,71.73
2018-02-04T13:47:21.704Z,71.01
2018-02-04T13:49:50.924Z,71.65
2018-02-04T13:52:20.102Z,72.09
2018-02-04T13:54:50.088Z,71.29
2018-02-04T13:57:20.288Z,71.11
2018-02-04T13:59:49.477Z,72.25
2018-02-04T14:02:18.818Z,72.16
2018-02-04T14:04:48.085Z,72.58
2018-02-04T14:07:17.290Z,72.31
2018-02-04T14:09:46.484Z,72.27
2018-02-04T14:12:15.809Z,72.37
2018-02-04T14:14:44.995Z,70.81
2018-02-04T14:17:14.204Z,70.72
2018-02-04T14:19:43.423Z,71.67
2018-02-04T14:22:12.605Z,71.39
2018-02-04T14:24:42.570Z,71.19
2018-02-04T14:27:11.768Z,70.45
2018-02-04T14:29:40.976Z,71.08
2018-02-04T14:32:10.401Z,71.31
2018-02-04T14:34:39.591Z,70.81
2018-02-04T14:37:08.807Z,70.98
2018-02-04T14:39:38.066Z,71.68
2018-02-04T14:42:08.216Z,72.66
2018-02-04T14:44:37.436Z,72.24
2018-02-04T14:47:07.497Z,72.49
2018-02-04T14:49:36.816Z,72.49
2018-02-04T14:52:06.049Z,73.67
2018-02-04T14:54:36.185Z,73.50
2018-02-04T14:57:06.171Z,73.19
2018-02-04T14:59:35.415Z,73.33
2018-02-04T15:02:04.741Z,73.11
2018-02-04T15:04:34.086Z,73.20
2018-02-04T15:07:03.326Z,73.32
2018-02-04T15:09:33.288Z,73.98
2018-02-04T15:12:02.673Z,73.93
2018-02-04T15:14:32.847Z,74.36
2018-02-04T15:17:02.085Z,74.64
2018-02-04T15:19:31.571Z,74.35
2018-02-04T15:22:00.753Z,73.79
2018-02-04T15:24:30.061Z,73.36
2018-02-04T15:26:59.283Z,72.79
2018-02-04T15:29:28.488Z,73.73
2018-02-04T15:31:57.683Z,74.08
2018-02-04T15:34:26.887Z,73.77
2018-02-04T15:36:57.595Z,74.36
2018-02-04T15:39:26.893Z,74.17
2018-02-04T15:41:56.297Z,74.17
2018-02-04T15:44:25.569Z,74.85
2018-02-04T15:46:54.808Z,74.61
2018-02-04T15:49:24.183Z,74.90
2018-02-04T15:51:53.405Z,74.13
2018-02-04T15:54:22.583Z,73.57
2018-02-04T15:56:52.007Z,74.54
2018-02-04T15:59:21.175Z,74.23
2018-02-04T16:01:50.398Z,73.97
2018-02-04T16:04:19.722Z,75.11
2018-02-04T16:06:49.829Z,74.41
2018-02-04T16:09:19.001Z,74.92
2018-02-04T16:11:48.192Z,74.62
2018-02-04T16:14:18.332Z,74.88
2018-02-04T16:16:47.554Z,74.35
2018-02-04T16:19:16.815Z,75.19
2018-02-04T16:21:46.635Z,75.37
2018-02-04T16:24:15.904Z,75.79
2018-02-04T16:26:45.082Z,75.98
2018-02-04T16:29:15.228Z,76.31
2018-02-04T16:31:44.553Z,75.93
2018-02-04T16:34:13.827Z,76.38
2018-02-04T16:36:44.077Z,76.52
2018-02-04T16:39:13.294Z,76.85
2018-02-04T16:41:42.498Z,76.25
2018-02-04T16:44:12.695Z,76.11
2018-02-04T16:46:41.936Z,76.06
2018-02-04T16:49:11.154Z,76.15
2018-02-04T16:51:40.375Z,76.15
2018-02-04T16:54:09.585Z,76.36
2018-02-04T16:56:38.795Z,75.94
2018-02-04T16:59:08.076Z,75.65
2018-02-04T17:01:37.291Z,76.19
2018-02-04T17:04:06.485Z,76.36
2018-02-04T17:06:35.878Z,76.74
2018-02-04T17:09:05.209Z,76.60
2018-02-04T17:11:35.191Z,76.77
2018-02-04T17:14:04.382Z,76.57
2018-02-04T17:16:33.801Z,76.08
2018-02-04T17:19:03.063Z,76.51
2018-02-04T17:21:32.314Z,76.26
2018-02-04T17:24:02.300Z,77.04
2018-02-04T17:26:31.523Z,76.58
2018-02-04T17:29:01.483Z,76.43
2018-02-04T17:31:30.872Z,76.29
2018-02-04T17:34:00.215Z,76.04
2018-02-04T17:36:29.485Z,76.30
2018-02-04T17:38:58.700Z,77.03
2018-02-04T17:41:27.909Z,77.11
2018-02-04T17:43:57.107Z,77.14
2018-02-04T17:46:26.304Z,77.08
2018-02-04T17:48:55.536Z,77.28
2018-02-04T17:51:25.508Z,77.44
2018-02-04T17:53:54.758Z,77.60
2018-02-04T17:56:25.050Z,77.71
2018-02-04T17:58:54.264Z,77.97
2018-02-04T18:01:23.468Z,78.20
2018-02-04T18:03:53.497Z,78.30
2018-02-04T18:06:23.568Z,78.51
2018-02-04T18:08:52.804Z,78.58
2018-02-04T18:11:22.816Z,78.58
2018-02-04T18:13:52.171Z,78.77
2018-02-04T18:16:21.392Z,78.84
2018-02-04T18:18:50.655Z,79.30
2018-02-04T18:21:19.855Z,79.34
2018-02-04T18:23:49.228Z,79.32
2018-02-04T18:26:18.434Z,79.91
2018-02-04T18:28:47.682Z,80.12
2018-02-04T18:31:16.920Z,81.06
2018-02-04T18:33:46.920Z,81.79
2018-02-04T18:36:16.118Z,82.47
2018-02-04T18:38:45.325Z,83.00
2018-02-04T18:41:14.716Z,83.41
2018-02-04T18:43:44.032Z,83.70
2018-02-04T18:46:14.068Z,83.99
2018-02-04T18:48:44.264Z,83.78
2018-02-04T18:51:14.358Z,83.72
2018-02-04T18:53:44.011Z,83.62
2018-02-04T18:56:13.324Z,83.86
2018-02-04T18:58:43.323Z,83.86
2018-02-04T19:01:12.556Z,83.82
2018-02-04T19:03:41.811Z,83.96
2018-02-04T19:06:11.312Z,84.10
2018-02-04T19:08:40.539Z,84.20
2018-02-04T19:11:09.797Z,84.36
2018-02-04T19:13:39.807Z,84.59
2018-02-04T19:16:09.932Z,84.52
2018-02-04T19:18:39.956Z,84.78
2018-02-04T19:21:09.956Z,84.91
2018-02-04T19:23:39.244Z,85.07
2018-02-04T19:26:09.309Z,85.12
2018-02-04T19:28:38.569Z,85.30
2018-02-04T19:31:07.771Z,85.33
2018-02-04T19:33:37.781Z,85.57
2018-02-04T19:36:07.841Z,85.38
2018-02-04T19:38:37.099Z,85.39
2018-02-04T19:41:06.646Z,85.09
2018-02-04T19:43:36.111Z,85.12
2018-02-04T19:46:06.214Z,85.18
2018-02-04T19:48:35.430Z,85.39
2018-02-04T19:51:05.435Z,85.65
2018-02-04T19:53:34.800Z,85.55
2018-02-04T19:56:04.200Z,85.73
2018-02-04T19:58:33.480Z,85.93
2018-02-04T20:01:02.727Z,85.98
2018-02-04T20:03:32.065Z,85.88
2018-02-04T20:06:01.309Z,85.87
2018-02-04T20:08:30.574Z,85.82
2018-02-04T20:10:59.884Z,85.60
2018-02-04T20:13:29.141Z,85.73
2018-02-04T20:15:58.455Z,85.46
2018-02-04T20:18:27.704Z,85.59
2018-02-04T20:20:57.043Z,85.84
2018-02-04T20:23:27.070Z,85.65
2018-02-04T20:25:56.337Z,85.63
2018-02-04T20:28:25.618Z,85.70
2018-02-04T20:30:54.966Z,85.51
2018-02-04T20:33:24.237Z,85.69
2018-02-04T20:35:53.500Z,85.90
2018-02-04T20:38:22.743Z,86.02
2018-02-04T20:40:52.087Z,86.04
2018-02-04T20:43:21.335Z,85.77
2018-02-04T20:45:50.586Z,86.10
2018-02-04T20:48:19.890Z,86.10
2018-02-04T20:50:49.138Z,86.03
2018-02-04T20:53:18.357Z,86.02
2018-02-04T20:55:48.368Z,85.73
2018-02-04T20:58:18.383Z,85.47
2018-02-04T21:00:48.593Z,85.25
2018-02-04T21:03:18.030Z,85.35
2018-02-04T21:05:47.357Z,85.35
2018-02-04T21:08:16.615Z,85.10
2018-02-04T21:10:45.883Z,85.04
2018-02-04T21:13:15.118Z,85.04
2018-02-04T21:15:44.446Z,85.14
2018-02-04T21:18:13.680Z,85.31
2018-02-04T21:20:42.903Z,85.43
2018-02-04T21:23:12.969Z,85.66
2018-02-04T21:25:42.369Z,85.75
2018-02-04T21:28:11.612Z,85.66
2018-02-04T21:30:40.934Z,85.53
2018-02-04T21:33:10.180Z,85.41
2018-02-04T21:35:39.439Z,85.17
2018-02-04T21:38:08.738Z,85.15
2018-02-04T21:40:38.071Z,84.58
2018-02-04T21:43:07.310Z,84.01
2018-02-04T21:45:37.307Z,84.16
2018-02-04T21:48:06.567Z,84.53
2018-02-04T21:50:35.809Z,84.69
2018-02-04T21:53:05.053Z,84.98
2018-02-04T21:55:34.365Z,85.03
2018-02-04T21:58:03.614Z,85.12
2018-02-04T22:00:33.666Z,85.46
2018-02-04T22:03:02.945Z,85.16
2018-02-04T22:05:32.286Z,85.16
2018-02-04T22:08:01.519Z,85.22
2018-02-04T22:10:30.726Z,85.50
2018-02-04T22:13:00.139Z,85.59
2018-02-04T22:15:30.138Z,85.64
2018-02-04T22:18:00.228Z,85.48
2018-02-04T22:20:29.507Z,85.50
2018-02-04T22:22:58.747Z,85.16
2018-02-04T22:25:27.993Z,84.35
2018-02-04T22:27:57.223Z,83.92
2018-02-04T22:30:26.426Z,83.66
2018-02-04T22:32:55.668Z,83.88
2018-02-04T22:35:24.920Z,83.53
2018-02-04T22:37:54.258Z,84.08
2018-02-04T22:40:24.257Z,83.56
2018-02-04T22:42:54.999Z,83.88
2018-02-04T22:45:25.018Z,84.41
2018-02-04T22:47:55.037Z,84.82
2018-02-04T22:50:24.251Z,84.70
2018-02-04T22:52:53.506Z,84.98
2018-02-04T22:55:22.785Z,85.07
2018-02-04T22:57:52.021Z,85.06
2018-02-04T23:00:22.062Z,85.52
2018-02-04T23:02:52.050Z,85.73
2018-02-04T23:05:21.306Z,85.65
2018-02-04T23:07:50.559Z,84.94
2018-02-04T23:10:20.859Z,85.14
2018-02-04T23:12:50.097Z,84.87
2018-02-04T23:15:20.154Z,84.42
2018-02-04T23:17:49.370Z,84.06
2018-02-04T23:20:18.674Z,83.67
2018-02-04T23:22:48.819Z,83.98
2018-02-04T23:25:18.958Z,83.92
2018-02-04T23:27:49.030Z,83.97
2018-02-04T23:30:18.265Z,84.06
2018-02-04T23:32:47.515Z,84.50
2018-02-04T23:35:16.773Z,85.16
2018-02-04T23:37:46.154Z,85.15
2018-02-04T23:40:16.269Z,85.30
2018-02-04T23:42:47.171Z,85.37
2018-02-04T23:45:20.168Z,85.26
2018-02-04T23:47:49.493Z,85.26
2018-02-04T23:50:43.573Z,85.34
2018-02-04T23:53:12.936Z,85.92
2018-02-04T23:55:42.464Z,86.17
2018-02-04T23:58:12.182Z,86.37
